sensor_id;sensor_type;location;lat;lon;timestamp;pressure;altitude;pressure_sealevel;temperature;humidity
21361;BME280;10839;43.206;23.550;2022-09-09T00:00:20;97115.97;;;25.89;46.76
21361;BME280;10839;43.206;23.550;2022-09-09T00:05:44;97093.91;;;25.89;46.89
21361;BME280;10839;43.206;23.550;2022-09-09T00:08:20;97094.75;;;25.89;46.90
21361;BME280;10839;43.206;23.550;2022-09-09T00:10:58;97119.03;;;25.87;46.68
21361;BME280;10839;43.206;23.550;2022-09-09T00:13:48;97101.81;;;25.77;47.14
21361;BME280;10839;43.206;23.550;2022-09-09T00:16:28;97102.31;;;25.79;46.71
21361;BME280;10839;43.206;23.550;2022-09-09T00:21:47;97082.56;;;25.72;47.32
21361;BME280;10839;43.206;23.550;2022-09-09T00:24:42;97075.84;;;25.78;46.94
21361;BME280;10839;43.206;23.550;2022-09-09T00:32:44;97067.88;;;25.76;47.18
21361;BME280;10839;43.206;23.550;2022-09-09T00:37:37;97080.19;;;25.84;46.99
21361;BME280;10839;43.206;23.550;2022-09-09T00:40:35;97089.09;;;25.76;46.97
21361;BME280;10839;43.206;23.550;2022-09-09T00:48:50;97083.47;;;24.61;50.96
21361;BME280;10839;43.206;23.550;2022-09-09T00:51:40;97065.41;;;24.02;53.32
21361;BME280;10839;43.206;23.550;2022-09-09T00:54:21;97074.53;;;23.82;54.32
21361;BME280;10839;43.206;23.550;2022-09-09T01:02:25;97088.38;;;22.87;58.47
21361;BME280;10839;43.206;23.550;2022-09-09T01:04:54;97075.78;;;22.96;58.08
21361;BME280;10839;43.206;23.550;2022-09-09T01:07:21;97090.03;;;23.08;57.83
21361;BME280;10839;43.206;23.550;2022-09-09T01:10:18;97087.81;;;22.69;59.62
21361;BME280;10839;43.206;23.550;2022-09-09T01:12:47;97073.03;;;22.70;59.36
21361;BME280;10839;43.206;23.550;2022-09-09T01:15:27;97081.25;;;22.81;59.20
21361;BME280;10839;43.206;23.550;2022-09-09T01:23:52;97088.63;;;22.60;59.68
21361;BME280;10839;43.206;23.550;2022-09-09T01:26:41;97093.78;;;22.36;61.05
21361;BME280;10839;43.206;23.550;2022-09-09T01:29:17;97098.16;;;22.32;60.91
21361;BME280;10839;43.206;23.550;2022-09-09T01:34:33;97100.81;;;22.07;61.91
21361;BME280;10839;43.206;23.550;2022-09-09T01:37:10;97097.22;;;22.02;61.96
21361;BME280;10839;43.206;23.550;2022-09-09T01:39:41;97106.84;;;22.14;61.65
21361;BME280;10839;43.206;23.550;2022-09-09T01:42:13;97105.81;;;22.25;61.23
21361;BME280;10839;43.206;23.550;2022-09-09T01:44:41;97094.31;;;22.33;60.85
21361;BME280;10839;43.206;23.550;2022-09-09T01:47:07;97099.81;;;22.43;60.36
21361;BME280;10839;43.206;23.550;2022-09-09T01:49:42;97094.84;;;22.20;61.05
21361;BME280;10839;43.206;23.550;2022-09-09T01:52:25;97092.38;;;22.19;60.96
21361;BME280;10839;43.206;23.550;2022-09-09T01:54:51;97104.69;;;22.16;61.15
21361;BME280;10839;43.206;23.550;2022-09-09T02:03:09;97112.91;;;22.21;60.82
21361;BME280;10839;43.206;23.550;2022-09-09T02:08:43;97107.44;;;22.21;60.98
21361;BME280;10839;43.206;23.550;2022-09-09T02:11:17;97114.59;;;22.27;60.72
21361;BME280;10839;43.206;23.550;2022-09-09T02:14:11;97114.28;;;22.14;61.33
21361;BME280;10839;43.206;23.550;2022-09-09T02:17:01;97103.03;;;22.10;61.46
21361;BME280;10839;43.206;23.550;2022-09-09T02:19:49;97109.75;;;22.59;59.26
21361;BME280;10839;43.206;23.550;2022-09-09T02:22:31;97118.00;;;22.74;58.11
21361;BME280;10839;43.206;23.550;2022-09-09T02:25:02;97102.63;;;22.58;58.75
21361;BME280;10839;43.206;23.550;2022-09-09T02:27:31;97107.50;;;22.51;59.38
21361;BME280;10839;43.206;23.550;2022-09-09T02:29:58;97113.34;;;22.65;58.58
21361;BME280;10839;43.206;23.550;2022-09-09T02:32:42;97115.81;;;22.71;58.58
21361;BME280;10839;43.206;23.550;2022-09-09T02:35:14;97108.44;;;22.82;57.81
21361;BME280;10839;43.206;23.550;2022-09-09T02:37:44;97113.09;;;22.92;57.38
21361;BME280;10839;43.206;23.550;2022-09-09T02:40:15;97098.25;;;22.83;57.55
21361;BME280;10839;43.206;23.550;2022-09-09T02:42:47;97111.47;;;22.91;57.39
21361;BME280;10839;43.206;23.550;2022-09-09T02:45:18;97089.75;;;22.74;57.92
21361;BME280;10839;43.206;23.550;2022-09-09T02:50:33;97092.44;;;22.49;58.34
21361;BME280;10839;43.206;23.550;2022-09-09T02:53:12;97109.69;;;22.49;59.04
21361;BME280;10839;43.206;23.550;2022-09-09T02:56:00;97097.06;;;22.38;59.19
21361;BME280;10839;43.206;23.550;2022-09-09T02:58:33;97086.91;;;22.29;59.56
21361;BME280;10839;43.206;23.550;2022-09-09T03:01:04;97094.88;;;22.40;59.24
21361;BME280;10839;43.206;23.550;2022-09-09T03:03:31;97093.25;;;22.49;58.79
21361;BME280;10839;43.206;23.550;2022-09-09T03:05:59;97086.19;;;23.09;55.88
21361;BME280;10839;43.206;23.550;2022-09-09T03:08:27;97092.47;;;23.19;55.86
21361;BME280;10839;43.206;23.550;2022-09-09T03:10:55;97111.41;;;22.60;58.43
21361;BME280;10839;43.206;23.550;2022-09-09T03:13:26;97117.41;;;22.52;58.42
21361;BME280;10839;43.206;23.550;2022-09-09T03:15:52;97110.22;;;22.36;58.97
21361;BME280;10839;43.206;23.550;2022-09-09T03:18:20;97129.69;;;22.35;59.40
21361;BME280;10839;43.206;23.550;2022-09-09T03:20:50;97105.28;;;22.33;59.38
21361;BME280;10839;43.206;23.550;2022-09-09T03:23:18;97121.19;;;22.36;59.30
21361;BME280;10839;43.206;23.550;2022-09-09T03:25:52;97124.53;;;22.48;59.01
21361;BME280;10839;43.206;23.550;2022-09-09T03:28:27;97115.72;;;22.46;58.82
21361;BME280;10839;43.206;23.550;2022-09-09T03:31:03;97115.41;;;22.33;59.38
21361;BME280;10839;43.206;23.550;2022-09-09T03:33:37;97116.78;;;22.25;59.77
21361;BME280;10839;43.206;23.550;2022-09-09T03:36:05;97114.63;;;22.32;59.19
21361;BME280;10839;43.206;23.550;2022-09-09T03:38:34;97128.56;;;22.21;60.02
21361;BME280;10839;43.206;23.550;2022-09-09T03:41:00;97111.72;;;21.87;61.19
21361;BME280;10839;43.206;23.550;2022-09-09T03:43:29;97121.63;;;22.03;60.58
21361;BME280;10839;43.206;23.550;2022-09-09T03:45:55;97111.16;;;21.90;61.33
21361;BME280;10839;43.206;23.550;2022-09-09T03:48:27;97108.09;;;21.82;61.33
21361;BME280;10839;43.206;23.550;2022-09-09T03:50:55;97111.13;;;21.80;61.78
21361;BME280;10839;43.206;23.550;2022-09-09T03:53:28;97103.38;;;21.72;61.96
21361;BME280;10839;43.206;23.550;2022-09-09T03:55:57;97115.44;;;21.76;61.79
21361;BME280;10839;43.206;23.550;2022-09-09T03:58:28;97114.59;;;21.66;62.29
21361;BME280;10839;43.206;23.550;2022-09-09T04:01:03;97095.25;;;21.87;61.00
21361;BME280;10839;43.206;23.550;2022-09-09T04:03:30;97115.06;;;22.09;60.40
21361;BME280;10839;43.206;23.550;2022-09-09T04:06:00;97114.19;;;21.89;61.13
21361;BME280;10839;43.206;23.550;2022-09-09T04:08:29;97115.06;;;22.09;60.78
21361;BME280;10839;43.206;23.550;2022-09-09T04:11:00;97121.63;;;22.03;60.98
21361;BME280;10839;43.206;23.550;2022-09-09T04:13:29;97117.84;;;22.24;60.56
21361;BME280;10839;43.206;23.550;2022-09-09T04:15:58;97122.56;;;22.34;59.36
21361;BME280;10839;43.206;23.550;2022-09-09T04:18:26;97121.00;;;22.53;59.13
21361;BME280;10839;43.206;23.550;2022-09-09T04:20:54;97130.63;;;22.65;58.15
21361;BME280;10839;43.206;23.550;2022-09-09T04:23:26;97140.25;;;22.88;57.78
21361;BME280;10839;43.206;23.550;2022-09-09T04:25:58;97125.19;;;22.91;57.97
21361;BME280;10839;43.206;23.550;2022-09-09T04:28:29;97133.94;;;23.18;57.59
21361;BME280;10839;43.206;23.550;2022-09-09T04:31:03;97142.00;;;24.28;56.24
21361;BME280;10839;43.206;23.550;2022-09-09T04:33:30;97139.41;;;24.95;51.82
21361;BME280;10839;43.206;23.550;2022-09-09T04:35:57;97131.69;;;26.17;47.87
21361;BME280;10839;43.206;23.550;2022-09-09T04:38:25;97139.09;;;27.01;45.21
21361;BME280;10839;43.206;23.550;2022-09-09T04:40:54;97111.31;;;27.29;44.53
21361;BME280;10839;43.206;23.550;2022-09-09T04:43:21;97110.63;;;28.37;42.49
21361;BME280;10839;43.206;23.550;2022-09-09T04:45:50;97099.84;;;29.34;39.13
21361;BME280;10839;43.206;23.550;2022-09-09T04:48:22;97113.56;;;29.39;39.35
21361;BME280;10839;43.206;23.550;2022-09-09T04:51:06;97103.50;;;30.44;38.27
21361;BME280;10839;43.206;23.550;2022-09-09T04:53:33;97118.97;;;31.18;36.86
21361;BME280;10839;43.206;23.550;2022-09-09T04:56:06;97111.06;;;30.13;38.22
21361;BME280;10839;43.206;23.550;2022-09-09T04:58:39;97118.47;;;30.82;36.55
21361;BME280;10839;43.206;23.550;2022-09-09T05:01:13;97126.81;;;31.24;36.15
21361;BME280;10839;43.206;23.550;2022-09-09T05:03:44;97130.41;;;30.35;37.31
21361;BME280;10839;43.206;23.550;2022-09-09T05:06:19;97119.06;;;30.62;36.69
21361;BME280;10839;43.206;23.550;2022-09-09T05:08:48;97110.50;;;29.71;38.31
21361;BME280;10839;43.206;23.550;2022-09-09T05:11:26;97108.47;;;29.33;39.25
21361;BME280;10839;43.206;23.550;2022-09-09T05:13:58;97104.94;;;28.83;39.66
21361;BME280;10839;43.206;23.550;2022-09-09T05:16:24;97114.16;;;29.58;38.81
21361;BME280;10839;43.206;23.550;2022-09-09T05:18:52;97124.25;;;29.76;38.35
21361;BME280;10839;43.206;23.550;2022-09-09T05:21:22;97122.84;;;28.99;39.66
21361;BME280;10839;43.206;23.550;2022-09-09T05:23:49;97131.09;;;30.09;38.24
21361;BME280;10839;43.206;23.550;2022-09-09T05:26:21;97123.53;;;30.24;38.01
21361;BME280;10839;43.206;23.550;2022-09-09T05:28:50;97123.22;;;31.50;35.68
21361;BME280;10839;43.206;23.550;2022-09-09T05:31:18;97127.31;;;32.62;34.45
21361;BME280;10839;43.206;23.550;2022-09-09T05:33:48;97126.06;;;32.51;34.32
21361;BME280;10839;43.206;23.550;2022-09-09T05:36:19;97119.78;;;31.10;36.00
21361;BME280;10839;43.206;23.550;2022-09-09T05:38:48;97111.34;;;33.20;33.50
21361;BME280;10839;43.206;23.550;2022-09-09T05:41:16;97121.66;;;32.03;34.49
21361;BME280;10839;43.206;23.550;2022-09-09T05:43:44;97116.16;;;32.62;34.17
21361;BME280;10839;43.206;23.550;2022-09-09T05:46:15;97136.75;;;35.10;30.58
21361;BME280;10839;43.206;23.550;2022-09-09T05:48:43;97125.22;;;33.29;32.16
21361;BME280;10839;43.206;23.550;2022-09-09T05:51:11;97127.41;;;32.44;33.78
21361;BME280;10839;43.206;23.550;2022-09-09T05:53:39;97123.38;;;34.67;30.85
21361;BME280;10839;43.206;23.550;2022-09-09T05:56:06;97141.56;;;36.20;29.08
21361;BME280;10839;43.206;23.550;2022-09-09T05:58:34;97148.78;;;36.98;29.15
21361;BME280;10839;43.206;23.550;2022-09-09T06:01:04;97147.63;;;36.22;28.90
21361;BME280;10839;43.206;23.550;2022-09-09T06:03:31;97148.44;;;36.22;29.04
21361;BME280;10839;43.206;23.550;2022-09-09T06:06:01;97151.16;;;36.65;28.92
21361;BME280;10839;43.206;23.550;2022-09-09T06:08:27;97156.56;;;36.27;28.90
21361;BME280;10839;43.206;23.550;2022-09-09T06:10:53;97139.69;;;36.55;28.65
21361;BME280;10839;43.206;23.550;2022-09-09T06:13:19;97149.97;;;37.86;27.84
21361;BME280;10839;43.206;23.550;2022-09-09T06:15:51;97136.13;;;37.23;27.77
21361;BME280;10839;43.206;23.550;2022-09-09T06:18:19;97140.34;;;37.14;28.31
21361;BME280;10839;43.206;23.550;2022-09-09T06:21:00;97146.84;;;36.68;28.55
21361;BME280;10839;43.206;23.550;2022-09-09T06:23:27;97143.06;;;38.44;26.69
21361;BME280;10839;43.206;23.550;2022-09-09T06:26:09;97141.88;;;38.68;26.63
21361;BME280;10839;43.206;23.550;2022-09-09T06:28:36;97139.25;;;38.33;27.08
21361;BME280;10839;43.206;23.550;2022-09-09T06:31:04;97138.06;;;37.19;27.93
21361;BME280;10839;43.206;23.550;2022-09-09T06:33:36;97142.19;;;37.06;27.97
21361;BME280;10839;43.206;23.550;2022-09-09T06:36:05;97141.97;;;36.49;29.34
21361;BME280;10839;43.206;23.550;2022-09-09T06:38:31;97127.88;;;35.08;30.99
21361;BME280;10839;43.206;23.550;2022-09-09T06:40:59;97125.72;;;33.63;33.18
21361;BME280;10839;43.206;23.550;2022-09-09T06:43:27;97127.75;;;34.20;32.69
21361;BME280;10839;43.206;23.550;2022-09-09T06:46:04;97129.25;;;34.05;32.73
21361;BME280;10839;43.206;23.550;2022-09-09T06:48:32;97150.94;;;35.68;30.95
21361;BME280;10839;43.206;23.550;2022-09-09T06:51:08;97146.59;;;37.42;28.90
21361;BME280;10839;43.206;23.550;2022-09-09T06:53:36;97139.16;;;38.52;28.96
21361;BME280;10839;43.206;23.550;2022-09-09T06:56:24;97147.13;;;38.69;29.27
21361;BME280;10839;43.206;23.550;2022-09-09T06:58:55;97147.59;;;39.23;28.68
21361;BME280;10839;43.206;23.550;2022-09-09T07:01:28;97142.81;;;39.01;29.00
21361;BME280;10839;43.206;23.550;2022-09-09T07:04:02;97147.91;;;38.47;30.41
21361;BME280;10839;43.206;23.550;2022-09-09T07:06:35;97145.91;;;38.25;30.15
21361;BME280;10839;43.206;23.550;2022-09-09T07:09:06;97143.66;;;38.57;29.38
21361;BME280;10839;43.206;23.550;2022-09-09T07:11:41;97155.81;;;38.38;27.14
21361;BME280;10839;43.206;23.550;2022-09-09T07:14:09;97148.59;;;35.98;29.56
21361;BME280;10839;43.206;23.550;2022-09-09T07:16:38;97148.28;;;34.84;31.19
21361;BME280;10839;43.206;23.550;2022-09-09T07:19:04;97143.06;;;35.07;31.51
21361;BME280;10839;43.206;23.550;2022-09-09T07:21:31;97146.84;;;34.18;32.56
21361;BME280;10839;43.206;23.550;2022-09-09T07:23:59;97146.28;;;35.21;31.46
21361;BME280;10839;43.206;23.550;2022-09-09T07:26:27;97145.78;;;35.31;31.65
21361;BME280;10839;43.206;23.550;2022-09-09T07:28:56;97143.09;;;35.46;31.50
21361;BME280;10839;43.206;23.550;2022-09-09T07:31:31;97148.63;;;34.82;31.98
21361;BME280;10839;43.206;23.550;2022-09-09T07:33:59;97151.56;;;33.93;33.01
21361;BME280;10839;43.206;23.550;2022-09-09T07:36:31;97141.13;;;33.28;34.52
21361;BME280;10839;43.206;23.550;2022-09-09T07:39:05;97144.16;;;34.21;33.45
21361;BME280;10839;43.206;23.550;2022-09-09T07:41:41;97147.25;;;34.64;33.44
21361;BME280;10839;43.206;23.550;2022-09-09T07:44:12;97150.66;;;36.01;31.33
21361;BME280;10839;43.206;23.550;2022-09-09T07:46:40;97141.88;;;35.87;33.61
21361;BME280;10839;43.206;23.550;2022-09-09T07:49:10;97147.97;;;35.49;35.40
21361;BME280;10839;43.206;23.550;2022-09-09T07:51:39;97144.63;;;35.71;35.03
21361;BME280;10839;43.206;23.550;2022-09-09T07:54:09;97146.72;;;35.35;35.79
21361;BME280;10839;43.206;23.550;2022-09-09T07:56:40;97151.00;;;35.72;35.28
21361;BME280;10839;43.206;23.550;2022-09-09T07:59:08;97158.56;;;35.56;35.75
21361;BME280;10839;43.206;23.550;2022-09-09T08:01:39;97156.91;;;34.79;36.92
21361;BME280;10839;43.206;23.550;2022-09-09T08:04:15;97148.16;;;35.17;36.46
21361;BME280;10839;43.206;23.550;2022-09-09T08:06:49;97162.63;;;34.82;36.72
21361;BME280;10839;43.206;23.550;2022-09-09T08:09:18;97151.91;;;34.60;37.55
21361;BME280;10839;43.206;23.550;2022-09-09T08:11:47;97153.84;;;34.36;38.27
21361;BME280;10839;43.206;23.550;2022-09-09T08:14:13;97159.38;;;33.67;40.19
21361;BME280;10839;43.206;23.550;2022-09-09T08:16:43;97155.16;;;33.61;40.54
21361;BME280;10839;43.206;23.550;2022-09-09T08:19:11;97152.97;;;33.25;40.91
21361;BME280;10839;43.206;23.550;2022-09-09T08:21:39;97157.56;;;33.01;41.40
21361;BME280;10839;43.206;23.550;2022-09-09T08:24:08;97157.19;;;32.82;42.19
21361;BME280;10839;43.206;23.550;2022-09-09T08:26:38;97161.59;;;32.83;42.14
21361;BME280;10839;43.206;23.550;2022-09-09T08:29:07;97165.75;;;32.47;42.66
21361;BME280;10839;43.206;23.550;2022-09-09T08:31:35;97158.53;;;32.38;42.88
21361;BME280;10839;43.206;23.550;2022-09-09T08:34:06;97157.19;;;32.82;42.15
21361;BME280;10839;43.206;23.550;2022-09-09T08:36:36;97155.97;;;33.00;41.50
21361;BME280;10839;43.206;23.550;2022-09-09T08:39:05;97153.03;;;33.58;40.35
21361;BME280;10839;43.206;23.550;2022-09-09T08:41:38;97159.44;;;33.91;39.71
21361;BME280;10839;43.206;23.550;2022-09-09T08:44:24;97162.63;;;34.82;37.85
21361;BME280;10839;43.206;23.550;2022-09-09T08:50:05;97158.88;;;35.27;37.22
21361;BME280;10839;43.206;23.550;2022-09-09T08:55:46;97153.78;;;34.93;37.05
21361;BME280;10839;43.206;23.550;2022-09-09T08:58:25;97158.22;;;34.69;37.44
21361;BME280;10839;43.206;23.550;2022-09-09T09:03:55;97156.25;;;34.82;37.38
21361;BME280;10839;43.206;23.550;2022-09-09T09:09:37;97151.72;;;34.09;38.99
21361;BME280;10839;43.206;23.550;2022-09-09T09:12:17;97155.75;;;33.99;39.48
21361;BME280;10839;43.206;23.550;2022-09-09T09:14:47;97148.13;;;34.08;39.52
21361;BME280;10839;43.206;23.550;2022-09-09T09:17:21;97147.03;;;34.45;38.99
21361;BME280;10839;43.206;23.550;2022-09-09T09:19:50;97147.72;;;34.66;38.53
21361;BME280;10839;43.206;23.550;2022-09-09T09:22:18;97143.81;;;34.23;39.64
21361;BME280;10839;43.206;23.550;2022-09-09T09:24:54;97159.13;;;34.49;39.33
21361;BME280;10839;43.206;23.550;2022-09-09T09:27:35;97152.81;;;34.28;39.66
21361;BME280;10839;43.206;23.550;2022-09-09T09:30:15;97155.84;;;33.58;40.92
21361;BME280;10839;43.206;23.550;2022-09-09T09:33:08;97149.78;;;33.35;41.64
21361;BME280;10839;43.206;23.550;2022-09-09T09:35:32;97142.91;;;33.33;41.18
21361;BME280;10839;43.206;23.550;2022-09-09T09:37:58;97154.44;;;33.52;41.12
21361;BME280;10839;43.206;23.550;2022-09-09T09:40:27;97149.44;;;33.37;41.40
21361;BME280;10839;43.206;23.550;2022-09-09T09:42:58;97141.88;;;32.88;42.43
21361;BME280;10839;43.206;23.550;2022-09-09T09:48:05;97156.38;;;32.52;43.34
21361;BME280;10839;43.206;23.550;2022-09-09T09:50:33;97152.34;;;32.32;43.78
21361;BME280;10839;43.206;23.550;2022-09-09T09:53:06;97154.13;;;32.37;43.40
21361;BME280;10839;43.206;23.550;2022-09-09T09:55:52;97159.31;;;32.09;44.68
21361;BME280;10839;43.206;23.550;2022-09-09T09:58:19;97170.19;;;31.51;46.01
21361;BME280;10839;43.206;23.550;2022-09-09T10:00:50;97161.53;;;31.53;46.45
21361;BME280;10839;43.206;23.550;2022-09-09T10:03:25;97161.72;;;31.39;46.83
21361;BME280;10839;43.206;23.550;2022-09-09T10:05:53;97173.47;;;31.36;46.52
21361;BME280;10839;43.206;23.550;2022-09-09T10:08:22;97166.97;;;31.49;46.84
21361;BME280;10839;43.206;23.550;2022-09-09T10:19:05;97171.41;;;30.77;47.36
21361;BME280;10839;43.206;23.550;2022-09-09T10:24:57;97178.56;;;30.61;47.80
21361;BME280;10839;43.206;23.550;2022-09-09T10:30:22;97188.56;;;30.23;48.00
21361;BME280;10839;43.206;23.550;2022-09-09T10:32:53;97193.56;;;30.21;48.17
21361;BME280;10839;43.206;23.550;2022-09-09T10:38:02;97191.50;;;29.73;50.69
21361;BME280;10839;43.206;23.550;2022-09-09T10:40:38;97192.66;;;29.72;52.00
21361;BME280;10839;43.206;23.550;2022-09-09T10:43:20;97197.28;;;29.63;53.43
21361;BME280;10839;43.206;23.550;2022-09-09T10:46:16;97205.59;;;29.41;54.18
21361;BME280;10839;43.206;23.550;2022-09-09T10:52:11;97209.63;;;28.86;57.09
21361;BME280;10839;43.206;23.550;2022-09-09T10:57:39;97212.41;;;29.57;56.91
21361;BME280;10839;43.206;23.550;2022-09-09T11:00:20;97208.63;;;29.53;56.96
21361;BME280;10839;43.206;23.550;2022-09-09T11:02:57;97208.88;;;29.65;55.89
21361;BME280;10839;43.206;23.550;2022-09-09T11:08:20;97211.38;;;29.53;57.51
21361;BME280;10839;43.206;23.550;2022-09-09T11:16:43;97198.09;;;28.93;60.08
21361;BME280;10839;43.206;23.550;2022-09-09T11:21:50;97186.81;;;28.35;61.48
21361;BME280;10839;43.206;23.550;2022-09-09T11:24:28;97195.84;;;28.40;60.58
21361;BME280;10839;43.206;23.550;2022-09-09T11:30:11;97188.47;;;28.36;61.67
21361;BME280;10839;43.206;23.550;2022-09-09T11:33:03;97177.38;;;28.09;61.64
21361;BME280;10839;43.206;23.550;2022-09-09T11:38:44;97184.34;;;27.93;62.84
21361;BME280;10839;43.206;23.550;2022-09-09T11:41:14;97179.22;;;28.00;63.97
21361;BME280;10839;43.206;23.550;2022-09-09T11:43:45;97186.78;;;27.94;66.08
21361;BME280;10839;43.206;23.550;2022-09-09T11:46:13;97186.81;;;28.08;65.47
21361;BME280;10839;43.206;23.550;2022-09-09T11:48:45;97189.31;;;28.23;65.83
21361;BME280;10839;43.206;23.550;2022-09-09T11:51:26;97180.91;;;28.28;64.88
21361;BME280;10839;43.206;23.550;2022-09-09T11:54:04;97174.09;;;28.20;65.80
21361;BME280;10839;43.206;23.550;2022-09-09T11:56:44;97172.75;;;27.91;66.84
21361;BME280;10839;43.206;23.550;2022-09-09T12:02:47;97172.66;;;27.96;67.07
21361;BME280;10839;43.206;23.550;2022-09-09T12:05:05;97166.41;;;27.72;66.85
21361;BME280;10839;43.206;23.550;2022-09-09T12:07:50;97158.03;;;27.77;68.01
21361;BME280;10839;43.206;23.550;2022-09-09T12:10:27;97133.47;;;27.24;65.39
21361;BME280;10839;43.206;23.550;2022-09-09T12:12:55;97142.16;;;27.36;66.23
21361;BME280;10839;43.206;23.550;2022-09-09T12:15:28;97130.06;;;27.32;67.48
21361;BME280;10839;43.206;23.550;2022-09-09T12:17:57;97135.13;;;27.25;67.39
21361;BME280;10839;43.206;23.550;2022-09-09T12:20:34;97129.66;;;27.20;67.91
21361;BME280;10839;43.206;23.550;2022-09-09T12:23:13;97129.00;;;27.28;68.47
21361;BME280;10839;43.206;23.550;2022-09-09T12:28:19;97117.69;;;27.11;69.71
21361;BME280;10839;43.206;23.550;2022-09-09T12:31:00;97113.94;;;27.02;70.53
21361;BME280;10839;43.206;23.550;2022-09-09T12:33:35;97105.56;;;27.07;70.91
21361;BME280;10839;43.206;23.550;2022-09-09T12:36:03;97106.00;;;27.14;71.29
21361;BME280;10839;43.206;23.550;2022-09-09T12:38:40;97102.72;;;27.12;71.51
21361;BME280;10839;43.206;23.550;2022-09-09T12:41:27;97098.97;;;26.90;72.84
21361;BME280;10839;43.206;23.550;2022-09-09T12:44:06;97093.66;;;26.93;72.85
21361;BME280;10839;43.206;23.550;2022-09-09T12:46:42;97098.69;;;26.49;72.27
21361;BME280;10839;43.206;23.550;2022-09-09T12:49:28;97085.44;;;26.09;74.64
21361;BME280;10839;43.206;23.550;2022-09-09T12:52:08;97094.44;;;26.38;73.55
21361;BME280;10839;43.206;23.550;2022-09-09T12:54:44;97089.31;;;26.87;71.96
21361;BME280;10839;43.206;23.550;2022-09-09T12:57:17;97085.97;;;27.22;70.54
21361;BME280;10839;43.206;23.550;2022-09-09T12:59:44;97085.72;;;27.70;69.20
21361;BME280;10839;43.206;23.550;2022-09-09T13:02:19;97077.00;;;27.76;67.29
21361;BME280;10839;43.206;23.550;2022-09-09T13:04:46;97082.16;;;26.86;70.40
21361;BME280;10839;43.206;23.550;2022-09-09T13:07:13;97073.19;;;27.58;67.96
21361;BME280;10839;43.206;23.550;2022-09-09T13:09:39;97085.31;;;28.17;64.83
21361;BME280;10839;43.206;23.550;2022-09-09T13:12:13;97077.81;;;28.44;62.14
21361;BME280;10839;43.206;23.550;2022-09-09T13:14:44;97066.03;;;28.39;60.49
21361;BME280;10839;43.206;23.550;2022-09-09T13:17:22;97069.09;;;28.64;59.09
21361;BME280;10839;43.206;23.550;2022-09-09T13:19:50;97062.88;;;28.81;58.77
21361;BME280;10839;43.206;23.550;2022-09-09T13:25:05;97056.94;;;28.25;58.73
21361;BME280;10839;43.206;23.550;2022-09-09T13:27:35;97050.88;;;27.82;59.37
21361;BME280;10839;43.206;23.550;2022-09-09T13:30:24;97056.13;;;27.97;59.38
21361;BME280;10839;43.206;23.550;2022-09-09T13:35:57;97048.19;;;27.63;57.56
21361;BME280;10839;43.206;23.550;2022-09-09T13:38:25;97041.25;;;27.80;56.54
21361;BME280;10839;43.206;23.550;2022-09-09T13:43:28;97041.28;;;27.93;56.91
21361;BME280;10839;43.206;23.550;2022-09-09T13:45:57;97040.47;;;28.06;57.04
21361;BME280;10839;43.206;23.550;2022-09-09T13:48:25;97033.88;;;28.16;55.42
21361;BME280;10839;43.206;23.550;2022-09-09T13:51:02;97030.19;;;27.80;57.22
21361;BME280;10839;43.206;23.550;2022-09-09T13:53:32;97035.50;;;27.76;56.84
21361;BME280;10839;43.206;23.550;2022-09-09T13:55:59;97038.16;;;27.54;57.74
21361;BME280;10839;43.206;23.550;2022-09-09T13:58:25;97035.50;;;27.76;57.89
21361;BME280;10839;43.206;23.550;2022-09-09T14:00:52;97034.94;;;27.93;57.56
21361;BME280;10839;43.206;23.550;2022-09-09T14:03:19;97038.69;;;27.70;55.44
21361;BME280;10839;43.206;23.550;2022-09-09T14:05:45;97034.25;;;27.55;55.09
21361;BME280;10839;43.206;23.550;2022-09-09T14:08:20;97035.94;;;27.97;55.00
21361;BME280;10839;43.206;23.550;2022-09-09T14:10:47;97037.09;;;28.45;53.80
21361;BME280;10839;43.206;23.550;2022-09-09T14:13:13;97037.03;;;28.72;53.44
21361;BME280;10839;43.206;23.550;2022-09-09T14:15:40;97041.25;;;28.92;51.16
21361;BME280;10839;43.206;23.550;2022-09-09T14:18:08;97025.91;;;28.85;51.42
21361;BME280;10839;43.206;23.550;2022-09-09T14:20:35;97023.34;;;29.11;51.13
21361;BME280;10839;43.206;23.550;2022-09-09T14:23:00;97028.81;;;29.55;50.81
21361;BME280;10839;43.206;23.550;2022-09-09T14:25:26;97019.34;;;29.56;55.09
21361;BME280;10839;43.206;23.550;2022-09-09T14:27:52;97024.06;;;29.25;56.99
21361;BME280;10839;43.206;23.550;2022-09-09T14:30:19;97021.53;;;29.37;54.90
21361;BME280;10839;43.206;23.550;2022-09-09T14:32:44;97015.94;;;29.07;55.04
21361;BME280;10839;43.206;23.550;2022-09-09T14:35:10;97010.47;;;28.93;53.43
21361;BME280;10839;43.206;23.550;2022-09-09T14:37:37;97014.44;;;28.78;53.55
21361;BME280;10839;43.206;23.550;2022-09-09T14:40:05;97028.88;;;28.89;53.73
21361;BME280;10839;43.206;23.550;2022-09-09T14:42:31;97026.59;;;28.69;53.42
21361;BME280;10839;43.206;23.550;2022-09-09T14:44:57;97022.44;;;28.80;53.05
21361;BME280;10839;43.206;23.550;2022-09-09T14:47:23;97024.69;;;28.56;52.54
21361;BME280;10839;43.206;23.550;2022-09-09T14:49:49;97022.03;;;28.51;52.91
21361;BME280;10839;43.206;23.550;2022-09-09T14:52:15;97002.41;;;28.61;48.85
21361;BME280;10839;43.206;23.550;2022-09-09T14:54:41;97009.69;;;28.57;47.56
21361;BME280;10839;43.206;23.550;2022-09-09T14:57:07;97014.03;;;28.71;47.72
21361;BME280;10839;43.206;23.550;2022-09-09T14:59:33;97010.84;;;29.00;46.51
21361;BME280;10839;43.206;23.550;2022-09-09T15:01:59;97013.25;;;29.15;46.37
21361;BME280;10839;43.206;23.550;2022-09-09T15:04:29;97023.84;;;28.91;47.10
21361;BME280;10839;43.206;23.550;2022-09-09T15:06:55;97025.44;;;28.70;47.22
21361;BME280;10839;43.206;23.550;2022-09-09T15:09:21;97013.72;;;28.51;47.69